Weather at Victoria Harbour (Camel Point) Heliport

Public forecast

Using degrees Celsius for public forecast. Weather courtesy of forecast.io.

Closest aviation weather report (METAR) to Victoria Harbour (Camel Point) Heliport

Closest report is Victoria Harbour Seaplane Base, 0.7 nm (1.3 km) ENE.

2024/05/26 20:00 (retrieved 32 minutes ago)

CYWH 262000Z 09008KT 15SM SCT009 BKN015 OVC045 11/09 A3010 RMK SF3SC3SC2 SLP194

Closest aviation forecast (TAF) to Victoria Harbour (Camel Point) Heliport

Forecast is more than 6 hours old.

Closest forecast is Victoria Harbour Seaplane Base, 0.7 nm (1.3 km) ENE.

2024/05/26 14:12 (retrieved 6 hours ago)

TAF TAF CYWH 261410Z 2614/2702 15005KT 5SM -RA BR OVC004 TEMPO 2614/2619 P6SM NSW SCT004 OVC030 FM261900 19005KT P6SM SCT020 BKN040 TEMPO 2619/2702 P6SM -SHRA BKN020 RMK NXT FCST BY 262100Z